sensor_id;sensor_type;location;lat;lon;timestamp;temperature;humidity
28763;DHT22;15918;51.270;6.522;2023-01-15T00:01:30;11.90;75.70
28763;DHT22;15918;51.270;6.522;2023-01-15T00:03:57;12.00;75.90
28763;DHT22;15918;51.270;6.522;2023-01-15T00:06:25;11.90;75.80
28763;DHT22;15918;51.270;6.522;2023-01-15T00:08:51;11.90;75.80
28763;DHT22;15918;51.270;6.522;2023-01-15T00:11:17;11.90;75.80
28763;DHT22;15918;51.270;6.522;2023-01-15T00:13:44;11.90;75.80
28763;DHT22;15918;51.270;6.522;2023-01-15T00:16:19;11.90;75.70
28763;DHT22;15918;51.270;6.522;2023-01-15T00:18:52;11.90;75.60
28763;DHT22;15918;51.270;6.522;2023-01-15T00:21:19;11.80;76.40
28763;DHT22;15918;51.270;6.522;2023-01-15T00:23:46;11.80;75.80
28763;DHT22;15918;51.270;6.522;2023-01-15T00:26:31;11.80;75.70
28763;DHT22;15918;51.270;6.522;2023-01-15T00:29:17;11.80;75.60
28763;DHT22;15918;51.270;6.522;2023-01-15T00:31:51;11.80;75.60
28763;DHT22;15918;51.270;6.522;2023-01-15T00:34:17;11.80;75.40
28763;DHT22;15918;51.270;6.522;2023-01-15T00:36:43;11.80;75.30
28763;DHT22;15918;51.270;6.522;2023-01-15T00:39:08;11.80;75.30
28763;DHT22;15918;51.270;6.522;2023-01-15T00:41:34;11.80;75.20
28763;DHT22;15918;51.270;6.522;2023-01-15T00:43:59;11.70;75.10
28763;DHT22;15918;51.270;6.522;2023-01-15T00:46:25;11.70;75.00
28763;DHT22;15918;51.270;6.522;2023-01-15T00:48:51;11.70;74.80
28763;DHT22;15918;51.270;6.522;2023-01-15T00:51:17;11.70;74.70
28763;DHT22;15918;51.270;6.522;2023-01-15T00:53:43;11.70;74.60
28763;DHT22;15918;51.270;6.522;2023-01-15T00:56:08;11.70;74.40
28763;DHT22;15918;51.270;6.522;2023-01-15T00:58:34;11.70;74.40
28763;DHT22;15918;51.270;6.522;2023-01-15T01:00:59;11.60;74.10
28763;DHT22;15918;51.270;6.522;2023-01-15T01:03:26;11.60;73.90
28763;DHT22;15918;51.270;6.522;2023-01-15T01:05:52;11.60;73.90
28763;DHT22;15918;51.270;6.522;2023-01-15T01:08:18;11.60;73.90
28763;DHT22;15918;51.270;6.522;2023-01-15T01:10:43;11.60;73.90
28763;DHT22;15918;51.270;6.522;2023-01-15T01:13:10;11.60;73.80
28763;DHT22;15918;51.270;6.522;2023-01-15T01:15:36;11.60;73.70
28763;DHT22;15918;51.270;6.522;2023-01-15T01:18:02;11.50;73.60
28763;DHT22;15918;51.270;6.522;2023-01-15T01:20:28;11.60;73.60
28763;DHT22;15918;51.270;6.522;2023-01-15T01:22:54;11.50;73.40
28763;DHT22;15918;51.270;6.522;2023-01-15T01:25:20;11.60;73.40
28763;DHT22;15918;51.270;6.522;2023-01-15T01:27:46;11.50;73.20
28763;DHT22;15918;51.270;6.522;2023-01-15T01:30:13;11.50;73.10
28763;DHT22;15918;51.270;6.522;2023-01-15T01:32:39;11.50;73.00
28763;DHT22;15918;51.270;6.522;2023-01-15T01:35:05;11.50;73.10
28763;DHT22;15918;51.270;6.522;2023-01-15T01:37:31;11.50;73.00
28763;DHT22;15918;51.270;6.522;2023-01-15T01:39:56;11.50;72.80
28763;DHT22;15918;51.270;6.522;2023-01-15T01:42:22;11.50;72.60
28763;DHT22;15918;51.270;6.522;2023-01-15T01:47:22;11.40;72.40
28763;DHT22;15918;51.270;6.522;2023-01-15T01:49:53;11.40;72.20
28763;DHT22;15918;51.270;6.522;2023-01-15T01:52:28;11.40;72.50
28763;DHT22;15918;51.270;6.522;2023-01-15T01:54:55;11.40;72.70
28763;DHT22;15918;51.270;6.522;2023-01-15T01:57:22;11.40;72.50
28763;DHT22;15918;51.270;6.522;2023-01-15T01:59:49;11.40;72.20
28763;DHT22;15918;51.270;6.522;2023-01-15T02:02:17;11.40;72.10
28763;DHT22;15918;51.270;6.522;2023-01-15T02:04:44;11.40;72.10
28763;DHT22;15918;51.270;6.522;2023-01-15T02:07:11;11.30;72.10
28763;DHT22;15918;51.270;6.522;2023-01-15T02:09:37;11.30;72.00
28763;DHT22;15918;51.270;6.522;2023-01-15T02:12:10;11.30;71.90
28763;DHT22;15918;51.270;6.522;2023-01-15T02:14:47;11.40;71.90
28763;DHT22;15918;51.270;6.522;2023-01-15T02:17:19;11.30;71.90
28763;DHT22;15918;51.270;6.522;2023-01-15T02:23:42;11.30;71.80
28763;DHT22;15918;51.270;6.522;2023-01-15T02:28:35;11.30;71.70
28763;DHT22;15918;51.270;6.522;2023-01-15T02:31:16;11.30;71.90
28763;DHT22;15918;51.270;6.522;2023-01-15T02:33:54;11.30;71.80
28763;DHT22;15918;51.270;6.522;2023-01-15T02:36:23;11.30;71.70
28763;DHT22;15918;51.270;6.522;2023-01-15T02:38:51;11.30;71.70
28763;DHT22;15918;51.270;6.522;2023-01-15T02:41:21;11.30;71.60
28763;DHT22;15918;51.270;6.522;2023-01-15T02:43:52;11.30;71.70
28763;DHT22;15918;51.270;6.522;2023-01-15T02:46:21;11.20;71.60
28763;DHT22;15918;51.270;6.522;2023-01-15T02:48:52;11.30;71.70
28763;DHT22;15918;51.270;6.522;2023-01-15T02:51:24;11.20;71.40
28763;DHT22;15918;51.270;6.522;2023-01-15T02:53:54;11.30;71.60
28763;DHT22;15918;51.270;6.522;2023-01-15T02:56:24;11.30;71.50
28763;DHT22;15918;51.270;6.522;2023-01-15T02:58:54;11.30;71.50
28763;DHT22;15918;51.270;6.522;2023-01-15T03:01:29;11.20;71.40
28763;DHT22;15918;51.270;6.522;2023-01-15T03:04:20;11.20;71.20
28763;DHT22;15918;51.270;6.522;2023-01-15T03:07:06;11.20;71.10
28763;DHT22;15918;51.270;6.522;2023-01-15T03:09:32;11.20;72.00
28763;DHT22;15918;51.270;6.522;2023-01-15T03:14:51;11.20;71.20
28763;DHT22;15918;51.270;6.522;2023-01-15T03:17:32;11.20;71.40
28763;DHT22;15918;51.270;6.522;2023-01-15T03:20:23;11.10;71.50
28763;DHT22;15918;51.270;6.522;2023-01-15T03:22:55;11.10;71.20
28763;DHT22;15918;51.270;6.522;2023-01-15T03:25:26;11.10;71.40
28763;DHT22;15918;51.270;6.522;2023-01-15T03:27:57;11.10;71.20
28763;DHT22;15918;51.270;6.522;2023-01-15T03:30:24;11.10;71.20
28763;DHT22;15918;51.270;6.522;2023-01-15T03:32:50;11.10;71.30
28763;DHT22;15918;51.270;6.522;2023-01-15T03:35:50;11.10;71.20
28763;DHT22;15918;51.270;6.522;2023-01-15T03:38:19;11.20;71.00
28763;DHT22;15918;51.270;6.522;2023-01-15T03:43:20;11.10;71.00
28763;DHT22;15918;51.270;6.522;2023-01-15T03:46:19;11.10;71.00
28763;DHT22;15918;51.270;6.522;2023-01-15T03:49:03;11.10;71.00
28763;DHT22;15918;51.270;6.522;2023-01-15T03:51:51;11.10;71.00
28763;DHT22;15918;51.270;6.522;2023-01-15T03:57:49;11.00;71.10
28763;DHT22;15918;51.270;6.522;2023-01-15T04:00:58;11.10;71.10
28763;DHT22;15918;51.270;6.522;2023-01-15T04:03:18;11.00;70.90
28763;DHT22;15918;51.270;6.522;2023-01-15T04:05:44;11.00;71.10
28763;DHT22;15918;51.270;6.522;2023-01-15T04:08:11;11.00;71.10
28763;DHT22;15918;51.270;6.522;2023-01-15T04:10:49;11.00;70.90
28763;DHT22;15918;51.270;6.522;2023-01-15T04:13:15;11.00;70.70
28763;DHT22;15918;51.270;6.522;2023-01-15T04:15:41;11.00;70.60
28763;DHT22;15918;51.270;6.522;2023-01-15T04:18:06;11.00;70.60
28763;DHT22;15918;51.270;6.522;2023-01-15T04:20:32;11.00;70.60
28763;DHT22;15918;51.270;6.522;2023-01-15T04:22:57;11.00;70.60
28763;DHT22;15918;51.270;6.522;2023-01-15T04:25:23;11.00;70.50
28763;DHT22;15918;51.270;6.522;2023-01-15T04:27:48;11.00;70.40
28763;DHT22;15918;51.270;6.522;2023-01-15T04:30:15;11.00;70.40
28763;DHT22;15918;51.270;6.522;2023-01-15T04:32:42;11.00;70.40
28763;DHT22;15918;51.270;6.522;2023-01-15T04:35:07;11.00;70.40
28763;DHT22;15918;51.270;6.522;2023-01-15T04:37:33;11.00;70.30
28763;DHT22;15918;51.270;6.522;2023-01-15T04:39:59;11.00;70.20
28763;DHT22;15918;51.270;6.522;2023-01-15T04:42:24;11.00;70.20
28763;DHT22;15918;51.270;6.522;2023-01-15T04:45:08;10.90;70.10
28763;DHT22;15918;51.270;6.522;2023-01-15T04:47:34;11.00;70.20
28763;DHT22;15918;51.270;6.522;2023-01-15T04:50:00;10.90;70.10
28763;DHT22;15918;51.270;6.522;2023-01-15T04:52:25;11.00;70.20
28763;DHT22;15918;51.270;6.522;2023-01-15T04:54:53;10.90;70.10
28763;DHT22;15918;51.270;6.522;2023-01-15T04:57:19;10.90;70.00
28763;DHT22;15918;51.270;6.522;2023-01-15T04:59:44;10.90;70.00
28763;DHT22;15918;51.270;6.522;2023-01-15T05:02:10;10.90;70.00
28763;DHT22;15918;51.270;6.522;2023-01-15T05:04:35;10.90;69.90
28763;DHT22;15918;51.270;6.522;2023-01-15T05:07:02;10.90;69.90
28763;DHT22;15918;51.270;6.522;2023-01-15T05:09:28;10.90;69.90
28763;DHT22;15918;51.270;6.522;2023-01-15T05:11:54;10.90;69.90
28763;DHT22;15918;51.270;6.522;2023-01-15T05:14:19;10.80;69.80
28763;DHT22;15918;51.270;6.522;2023-01-15T05:16:45;10.90;69.80
28763;DHT22;15918;51.270;6.522;2023-01-15T05:19:10;10.80;69.80
28763;DHT22;15918;51.270;6.522;2023-01-15T05:21:40;10.90;69.90
28763;DHT22;15918;51.270;6.522;2023-01-15T05:24:06;10.80;69.80
28763;DHT22;15918;51.270;6.522;2023-01-15T05:26:34;10.80;69.90
28763;DHT22;15918;51.270;6.522;2023-01-15T05:29:00;10.80;70.00
28763;DHT22;15918;51.270;6.522;2023-01-15T05:31:27;10.80;70.00
28763;DHT22;15918;51.270;6.522;2023-01-15T05:33:54;10.80;69.90
28763;DHT22;15918;51.270;6.522;2023-01-15T05:36:22;10.80;69.80
28763;DHT22;15918;51.270;6.522;2023-01-15T05:38:49;10.80;69.80
28763;DHT22;15918;51.270;6.522;2023-01-15T05:41:16;10.80;69.80
28763;DHT22;15918;51.270;6.522;2023-01-15T05:44:04;10.80;69.80
28763;DHT22;15918;51.270;6.522;2023-01-15T05:46:32;10.80;69.80
28763;DHT22;15918;51.270;6.522;2023-01-15T05:49:01;10.80;69.80
28763;DHT22;15918;51.270;6.522;2023-01-15T05:51:28;10.80;69.80
28763;DHT22;15918;51.270;6.522;2023-01-15T05:53:54;10.80;69.80
28763;DHT22;15918;51.270;6.522;2023-01-15T05:56:20;10.80;69.80
28763;DHT22;15918;51.270;6.522;2023-01-15T05:58:46;10.80;69.70
28763;DHT22;15918;51.270;6.522;2023-01-15T06:01:12;10.80;69.70
28763;DHT22;15918;51.270;6.522;2023-01-15T06:03:37;10.80;69.60
28763;DHT22;15918;51.270;6.522;2023-01-15T06:06:03;10.80;69.60
28763;DHT22;15918;51.270;6.522;2023-01-15T06:08:29;10.80;69.70
28763;DHT22;15918;51.270;6.522;2023-01-15T06:10:55;10.80;69.70
28763;DHT22;15918;51.270;6.522;2023-01-15T06:13:21;10.80;69.70
28763;DHT22;15918;51.270;6.522;2023-01-15T06:15:46;10.80;69.60
28763;DHT22;15918;51.270;6.522;2023-01-15T06:18:12;10.80;69.60
28763;DHT22;15918;51.270;6.522;2023-01-15T06:20:40;10.80;69.60
28763;DHT22;15918;51.270;6.522;2023-01-15T06:23:07;10.80;69.70
28763;DHT22;15918;51.270;6.522;2023-01-15T06:25:34;10.70;69.70
28763;DHT22;15918;51.270;6.522;2023-01-15T06:28:04;10.80;69.80
28763;DHT22;15918;51.270;6.522;2023-01-15T06:30:30;10.70;69.70
28763;DHT22;15918;51.270;6.522;2023-01-15T06:32:56;10.70;69.70
28763;DHT22;15918;51.270;6.522;2023-01-15T06:35:22;10.70;69.60
28763;DHT22;15918;51.270;6.522;2023-01-15T06:37:50;10.70;69.60
28763;DHT22;15918;51.270;6.522;2023-01-15T06:40:16;10.70;69.50
28763;DHT22;15918;51.270;6.522;2023-01-15T06:42:42;10.70;69.50
28763;DHT22;15918;51.270;6.522;2023-01-15T06:45:26;10.70;69.60
28763;DHT22;15918;51.270;6.522;2023-01-15T06:48:11;10.70;69.50
28763;DHT22;15918;51.270;6.522;2023-01-15T06:50:37;10.60;69.40
28763;DHT22;15918;51.270;6.522;2023-01-15T06:53:02;10.60;70.10
28763;DHT22;15918;51.270;6.522;2023-01-15T06:55:28;10.60;69.30
28763;DHT22;15918;51.270;6.522;2023-01-15T06:57:53;10.60;69.20
28763;DHT22;15918;51.270;6.522;2023-01-15T07:00:19;10.60;69.20
28763;DHT22;15918;51.270;6.522;2023-01-15T07:02:45;10.60;69.20
28763;DHT22;15918;51.270;6.522;2023-01-15T07:05:10;10.60;69.10
28763;DHT22;15918;51.270;6.522;2023-01-15T07:07:36;10.60;69.00
28763;DHT22;15918;51.270;6.522;2023-01-15T07:10:01;10.60;69.00
28763;DHT22;15918;51.270;6.522;2023-01-15T07:12:27;10.60;69.00
28763;DHT22;15918;51.270;6.522;2023-01-15T07:14:52;10.60;69.00
28763;DHT22;15918;51.270;6.522;2023-01-15T07:17:18;10.60;68.90
28763;DHT22;15918;51.270;6.522;2023-01-15T07:19:45;10.60;69.00
28763;DHT22;15918;51.270;6.522;2023-01-15T07:22:11;10.60;68.90
28763;DHT22;15918;51.270;6.522;2023-01-15T07:24:37;10.60;68.90
28763;DHT22;15918;51.270;6.522;2023-01-15T07:27:03;10.60;69.00
28763;DHT22;15918;51.270;6.522;2023-01-15T07:29:29;10.60;69.00
28763;DHT22;15918;51.270;6.522;2023-01-15T07:31:56;10.60;68.90
28763;DHT22;15918;51.270;6.522;2023-01-15T07:34:22;10.70;69.00
28763;DHT22;15918;51.270;6.522;2023-01-15T07:36:48;10.60;68.90
28763;DHT22;15918;51.270;6.522;2023-01-15T07:39:14;10.60;68.90
28763;DHT22;15918;51.270;6.522;2023-01-15T07:41:40;10.60;68.90
28763;DHT22;15918;51.270;6.522;2023-01-15T07:44:24;10.60;68.80
28763;DHT22;15918;51.270;6.522;2023-01-15T07:47:19;10.60;68.90
28763;DHT22;15918;51.270;6.522;2023-01-15T07:50:05;10.60;68.90
28763;DHT22;15918;51.270;6.522;2023-01-15T07:52:32;10.60;68.80
28763;DHT22;15918;51.270;6.522;2023-01-15T07:54:57;10.50;68.80
28763;DHT22;15918;51.270;6.522;2023-01-15T07:57:23;10.50;68.80
28763;DHT22;15918;51.270;6.522;2023-01-15T07:59:49;10.60;68.90
28763;DHT22;15918;51.270;6.522;2023-01-15T08:02:15;10.50;68.80
28763;DHT22;15918;51.270;6.522;2023-01-15T08:04:41;10.50;68.80
28763;DHT22;15918;51.270;6.522;2023-01-15T08:07:07;10.50;68.80
28763;DHT22;15918;51.270;6.522;2023-01-15T08:09:33;10.50;68.80
28763;DHT22;15918;51.270;6.522;2023-01-15T08:12:00;10.50;68.70
28763;DHT22;15918;51.270;6.522;2023-01-15T08:14:45;10.50;68.60
28763;DHT22;15918;51.270;6.522;2023-01-15T08:17:32;10.50;68.60
28763;DHT22;15918;51.270;6.522;2023-01-15T08:19:57;10.50;68.50
28763;DHT22;15918;51.270;6.522;2023-01-15T08:22:23;10.50;68.40
28763;DHT22;15918;51.270;6.522;2023-01-15T08:24:48;10.50;68.20
28763;DHT22;15918;51.270;6.522;2023-01-15T08:27:14;10.40;68.10
28763;DHT22;15918;51.270;6.522;2023-01-15T08:29:40;10.50;68.00
28763;DHT22;15918;51.270;6.522;2023-01-15T08:32:05;10.40;67.70
28763;DHT22;15918;51.270;6.522;2023-01-15T08:34:31;10.40;67.70
28763;DHT22;15918;51.270;6.522;2023-01-15T08:36:56;10.40;67.60
28763;DHT22;15918;51.270;6.522;2023-01-15T08:39:27;10.40;67.50
28763;DHT22;15918;51.270;6.522;2023-01-15T08:41:54;10.40;67.40
28763;DHT22;15918;51.270;6.522;2023-01-15T08:44:19;10.40;67.40
28763;DHT22;15918;51.270;6.522;2023-01-15T08:46:46;10.40;67.20
28763;DHT22;15918;51.270;6.522;2023-01-15T08:49:13;10.40;67.10
28763;DHT22;15918;51.270;6.522;2023-01-15T08:51:38;10.40;67.10
28763;DHT22;15918;51.270;6.522;2023-01-15T08:54:04;10.40;67.00
28763;DHT22;15918;51.270;6.522;2023-01-15T08:56:29;10.40;66.90
28763;DHT22;15918;51.270;6.522;2023-01-15T08:58:55;10.30;66.80
28763;DHT22;15918;51.270;6.522;2023-01-15T09:01:21;10.30;66.80
28763;DHT22;15918;51.270;6.522;2023-01-15T09:03:46;10.30;66.80
28763;DHT22;15918;51.270;6.522;2023-01-15T09:06:12;10.30;66.70
28763;DHT22;15918;51.270;6.522;2023-01-15T09:08:38;10.30;66.70
28763;DHT22;15918;51.270;6.522;2023-01-15T09:11:05;10.30;66.60
28763;DHT22;15918;51.270;6.522;2023-01-15T09:13:31;10.30;66.70
28763;DHT22;15918;51.270;6.522;2023-01-15T09:16:01;10.30;66.80
28763;DHT22;15918;51.270;6.522;2023-01-15T09:18:27;10.30;66.90
28763;DHT22;15918;51.270;6.522;2023-01-15T09:20:53;10.20;66.90
28763;DHT22;15918;51.270;6.522;2023-01-15T09:23:19;10.30;67.10
28763;DHT22;15918;51.270;6.522;2023-01-15T09:26:02;10.30;67.10
28763;DHT22;15918;51.270;6.522;2023-01-15T09:28:34;10.30;67.00
28763;DHT22;15918;51.270;6.522;2023-01-15T09:31:00;10.20;67.10
28763;DHT22;15918;51.270;6.522;2023-01-15T09:33:25;10.30;67.20
28763;DHT22;15918;51.270;6.522;2023-01-15T09:35:51;10.30;67.40
28763;DHT22;15918;51.270;6.522;2023-01-15T09:38:19;10.30;67.40
28763;DHT22;15918;51.270;6.522;2023-01-15T09:40:49;10.30;67.50
28763;DHT22;15918;51.270;6.522;2023-01-15T09:46:12;10.30;67.50
28763;DHT22;15918;51.270;6.522;2023-01-15T09:48:53;10.30;67.50
28763;DHT22;15918;51.270;6.522;2023-01-15T09:52:10;10.30;67.50
28763;DHT22;15918;51.270;6.522;2023-01-15T09:57:11;10.30;67.40
28763;DHT22;15918;51.270;6.522;2023-01-15T09:59:40;10.30;67.30
28763;DHT22;15918;51.270;6.522;2023-01-15T10:02:25;10.30;67.20
28763;DHT22;15918;51.270;6.522;2023-01-15T10:05:06;10.40;66.90
28763;DHT22;15918;51.270;6.522;2023-01-15T10:07:50;10.40;66.70
28763;DHT22;15918;51.270;6.522;2023-01-15T10:10:21;10.40;66.50
28763;DHT22;15918;51.270;6.522;2023-01-15T10:12:53;10.40;66.30
28763;DHT22;15918;51.270;6.522;2023-01-15T10:15:41;10.30;65.90
28763;DHT22;15918;51.270;6.522;2023-01-15T10:18:13;10.40;65.70
28763;DHT22;15918;51.270;6.522;2023-01-15T10:31:22;10.40;65.50
28763;DHT22;15918;51.270;6.522;2023-01-15T10:37:07;10.40;65.30
28763;DHT22;15918;51.270;6.522;2023-01-15T10:39:42;10.40;65.40
28763;DHT22;15918;51.270;6.522;2023-01-15T10:42:33;10.40;65.30
28763;DHT22;15918;51.270;6.522;2023-01-15T10:45:25;10.40;65.10
28763;DHT22;15918;51.270;6.522;2023-01-15T10:48:12;10.40;65.30
28763;DHT22;15918;51.270;6.522;2023-01-15T10:50:38;10.40;65.30
28763;DHT22;15918;51.270;6.522;2023-01-15T10:56:06;10.50;65.20
28763;DHT22;15918;51.270;6.522;2023-01-15T10:58:40;10.40;65.20
28763;DHT22;15918;51.270;6.522;2023-01-15T11:01:15;10.40;65.00
28763;DHT22;15918;51.270;6.522;2023-01-15T11:03:42;10.50;65.10
28763;DHT22;15918;51.270;6.522;2023-01-15T11:06:20;10.50;65.10
28763;DHT22;15918;51.270;6.522;2023-01-15T11:08:55;10.50;65.00
28763;DHT22;15918;51.270;6.522;2023-01-15T11:11:40;10.50;65.00
28763;DHT22;15918;51.270;6.522;2023-01-15T11:17:34;10.50;65.00
28763;DHT22;15918;51.270;6.522;2023-01-15T11:22:48;10.50;64.80
28763;DHT22;15918;51.270;6.522;2023-01-15T11:25:25;10.40;64.70
28763;DHT22;15918;51.270;6.522;2023-01-15T11:27:51;10.50;64.60
28763;DHT22;15918;51.270;6.522;2023-01-15T11:30:35;10.50;64.50
28763;DHT22;15918;51.270;6.522;2023-01-15T11:33:06;10.60;64.40
28763;DHT22;15918;51.270;6.522;2023-01-15T11:35:52;10.50;64.80
28763;DHT22;15918;51.270;6.522;2023-01-15T11:38:23;10.50;64.70
28763;DHT22;15918;51.270;6.522;2023-01-15T11:43:56;10.50;64.80
28763;DHT22;15918;51.270;6.522;2023-01-15T11:46:41;10.50;64.10
28763;DHT22;15918;51.270;6.522;2023-01-15T11:49:25;10.50;64.20
28763;DHT22;15918;51.270;6.522;2023-01-15T11:52:16;10.50;64.10
28763;DHT22;15918;51.270;6.522;2023-01-15T11:54:45;10.50;64.00
28763;DHT22;15918;51.270;6.522;2023-01-15T11:57:26;10.50;63.80
28763;DHT22;15918;51.270;6.522;2023-01-15T11:59:52;10.50;63.60
28763;DHT22;15918;51.270;6.522;2023-01-15T12:02:31;10.50;63.60
28763;DHT22;15918;51.270;6.522;2023-01-15T12:05:20;10.50;63.40
28763;DHT22;15918;51.270;6.522;2023-01-15T12:07:52;10.50;63.50
28763;DHT22;15918;51.270;6.522;2023-01-15T12:10:24;10.50;63.50
28763;DHT22;15918;51.270;6.522;2023-01-15T12:15:56;10.50;63.50
28763;DHT22;15918;51.270;6.522;2023-01-15T12:18:52;10.50;63.40
28763;DHT22;15918;51.270;6.522;2023-01-15T12:21:35;10.50;63.20
28763;DHT22;15918;51.270;6.522;2023-01-15T12:29:33;10.50;63.40
28763;DHT22;15918;51.270;6.522;2023-01-15T12:32:16;10.50;63.20
28763;DHT22;15918;51.270;6.522;2023-01-15T12:35:02;10.50;63.20
28763;DHT22;15918;51.270;6.522;2023-01-15T12:37:51;10.50;63.20
28763;DHT22;15918;51.270;6.522;2023-01-15T12:40:27;10.60;63.20
28763;DHT22;15918;51.270;6.522;2023-01-15T12:42:54;10.50;63.20
28763;DHT22;15918;51.270;6.522;2023-01-15T12:45:48;10.60;63.20
28763;DHT22;15918;51.270;6.522;2023-01-15T12:51:12;10.60;62.80
28763;DHT22;15918;51.270;6.522;2023-01-15T12:53:42;10.50;63.00
28763;DHT22;15918;51.270;6.522;2023-01-15T12:56:23;10.60;63.00
28763;DHT22;15918;51.270;6.522;2023-01-15T13:04:54;10.60;63.10
28763;DHT22;15918;51.270;6.522;2023-01-15T13:07:26;10.50;63.00
28763;DHT22;15918;51.270;6.522;2023-01-15T13:12:32;10.50;63.00
28763;DHT22;15918;51.270;6.522;2023-01-15T13:14:58;10.50;63.00
28763;DHT22;15918;51.270;6.522;2023-01-15T13:22:51;10.50;62.80
28763;DHT22;15918;51.270;6.522;2023-01-15T13:28:31;10.60;62.70
28763;DHT22;15918;51.270;6.522;2023-01-15T13:33:59;10.50;62.60
28763;DHT22;15918;51.270;6.522;2023-01-15T13:36:35;10.50;62.80
28763;DHT22;15918;51.270;6.522;2023-01-15T13:39:06;10.50;62.60
28763;DHT22;15918;51.270;6.522;2023-01-15T13:41:35;10.50;62.60
28763;DHT22;15918;51.270;6.522;2023-01-15T13:44:27;10.50;62.90
28763;DHT22;15918;51.270;6.522;2023-01-15T13:47:09;10.50;62.50
28763;DHT22;15918;51.270;6.522;2023-01-15T13:49:39;10.60;62.40
28763;DHT22;15918;51.270;6.522;2023-01-15T13:52:07;10.50;62.40
28763;DHT22;15918;51.270;6.522;2023-01-15T13:54:44;10.50;62.30
28763;DHT22;15918;51.270;6.522;2023-01-15T13:57:31;10.50;62.30
28763;DHT22;15918;51.270;6.522;2023-01-15T13:59:57;10.60;62.30
28763;DHT22;15918;51.270;6.522;2023-01-15T14:02:26;10.50;62.30
28763;DHT22;15918;51.270;6.522;2023-01-15T14:04:52;10.60;62.40
28763;DHT22;15918;51.270;6.522;2023-01-15T14:07:20;10.60;62.30
28763;DHT22;15918;51.270;6.522;2023-01-15T14:09:48;10.60;62.40
28763;DHT22;15918;51.270;6.522;2023-01-15T14:12:48;10.60;62.40
28763;DHT22;15918;51.270;6.522;2023-01-15T14:15:29;10.60;62.20
28763;DHT22;15918;51.270;6.522;2023-01-15T14:21:06;10.60;62.30
28763;DHT22;15918;51.270;6.522;2023-01-15T14:26:47;10.60;62.30
28763;DHT22;15918;51.270;6.522;2023-01-15T14:29:42;10.50;62.20
28763;DHT22;15918;51.270;6.522;2023-01-15T14:35:03;10.50;62.00
28763;DHT22;15918;51.270;6.522;2023-01-15T14:37:57;10.50;62.20
28763;DHT22;15918;51.270;6.522;2023-01-15T14:40:27;10.60;62.00
28763;DHT22;15918;51.270;6.522;2023-01-15T14:42:55;10.50;62.00
28763;DHT22;15918;51.270;6.522;2023-01-15T14:45:38;10.50;62.00
28763;DHT22;15918;51.270;6.522;2023-01-15T14:50:53;10.50;62.00
28763;DHT22;15918;51.270;6.522;2023-01-15T14:53:42;10.50;62.10
28763;DHT22;15918;51.270;6.522;2023-01-15T15:01:28;10.50;61.80
28763;DHT22;15918;51.270;6.522;2023-01-15T15:04:14;10.50;61.80
28763;DHT22;15918;51.270;6.522;2023-01-15T15:06:50;10.60;61.80
28763;DHT22;15918;51.270;6.522;2023-01-15T15:09:28;10.50;61.90
28763;DHT22;15918;51.270;6.522;2023-01-15T15:11:59;10.50;61.80
28763;DHT22;15918;51.270;6.522;2023-01-15T15:14:53;10.50;61.90
28763;DHT22;15918;51.270;6.522;2023-01-15T15:17:32;10.50;62.00
28763;DHT22;15918;51.270;6.522;2023-01-15T15:25:40;10.50;61.90
28763;DHT22;15918;51.270;6.522;2023-01-15T15:28:10;10.50;61.90
28763;DHT22;15918;51.270;6.522;2023-01-15T15:30:42;10.50;61.90
28763;DHT22;15918;51.270;6.522;2023-01-15T15:33:17;10.50;61.90
28763;DHT22;15918;51.270;6.522;2023-01-15T15:35:53;10.50;61.90
28763;DHT22;15918;51.270;6.522;2023-01-15T15:38:20;10.50;62.00
28763;DHT22;15918;51.270;6.522;2023-01-15T15:40:54;10.50;62.00
28763;DHT22;15918;51.270;6.522;2023-01-15T15:43:51;10.50;62.00
28763;DHT22;15918;51.270;6.522;2023-01-15T15:46:34;10.50;62.00
28763;DHT22;15918;51.270;6.522;2023-01-15T15:49:19;10.50;62.20
28763;DHT22;15918;51.270;6.522;2023-01-15T15:51:52;10.50;62.20
28763;DHT22;15918;51.270;6.522;2023-01-15T15:57:04;10.40;62.30
28763;DHT22;15918;51.270;6.522;2023-01-15T15:59:37;10.50;62.60
28763;DHT22;15918;51.270;6.522;2023-01-15T16:02:32;10.40;62.70
28763;DHT22;15918;51.270;6.522;2023-01-15T16:07:45;10.40;62.80
28763;DHT22;15918;51.270;6.522;2023-01-15T16:12:45;10.40;62.80
28763;DHT22;15918;51.270;6.522;2023-01-15T16:15:19;10.40;62.80
28763;DHT22;15918;51.270;6.522;2023-01-15T16:17:46;10.40;62.80
28763;DHT22;15918;51.270;6.522;2023-01-15T16:20:15;10.40;62.90
28763;DHT22;15918;51.270;6.522;2023-01-15T16:22:55;10.40;62.90
28763;DHT22;15918;51.270;6.522;2023-01-15T16:27:48;10.40;62.90
28763;DHT22;15918;51.270;6.522;2023-01-15T16:30:15;10.40;62.80
28763;DHT22;15918;51.270;6.522;2023-01-15T16:32:41;10.40;62.80
28763;DHT22;15918;51.270;6.522;2023-01-15T16:35:16;10.40;62.90
28763;DHT22;15918;51.270;6.522;2023-01-15T16:37:46;10.40;62.80
28763;DHT22;15918;51.270;6.522;2023-01-15T16:40:33;10.40;62.90
28763;DHT22;15918;51.270;6.522;2023-01-15T16:43:09;10.40;62.70
28763;DHT22;15918;51.270;6.522;2023-01-15T16:50:48;10.40;62.90
28763;DHT22;15918;51.270;6.522;2023-01-15T16:53:36;10.40;63.60
28763;DHT22;15918;51.270;6.522;2023-01-15T16:56:02;10.40;62.70
28763;DHT22;15918;51.270;6.522;2023-01-15T16:58:34;10.40;62.90
28763;DHT22;15918;51.270;6.522;2023-01-15T17:01:03;10.40;62.70
28763;DHT22;15918;51.270;6.522;2023-01-15T17:03:46;10.40;62.70
28763;DHT22;15918;51.270;6.522;2023-01-15T17:06:12;10.30;62.60
28763;DHT22;15918;51.270;6.522;2023-01-15T17:08:43;10.30;62.60
28763;DHT22;15918;51.270;6.522;2023-01-15T17:11:19;10.40;62.70
28763;DHT22;15918;51.270;6.522;2023-01-15T17:13:45;10.40;62.60
28763;DHT22;15918;51.270;6.522;2023-01-15T17:16:20;10.30;62.60
28763;DHT22;15918;51.270;6.522;2023-01-15T17:18:48;10.30;62.60
28763;DHT22;15918;51.270;6.522;2023-01-15T17:21:18;10.30;62.60
28763;DHT22;15918;51.270;6.522;2023-01-15T17:23:47;10.30;62.60
28763;DHT22;15918;51.270;6.522;2023-01-15T17:26:21;10.30;62.60
28763;DHT22;15918;51.270;6.522;2023-01-15T17:28:48;10.30;63.40
28763;DHT22;15918;51.270;6.522;2023-01-15T17:33:49;10.30;62.70
28763;DHT22;15918;51.270;6.522;2023-01-15T17:36:18;10.30;62.70
28763;DHT22;15918;51.270;6.522;2023-01-15T17:38:44;10.30;62.80
28763;DHT22;15918;51.270;6.522;2023-01-15T17:41:15;10.30;62.80
28763;DHT22;15918;51.270;6.522;2023-01-15T17:43:41;10.30;62.80
28763;DHT22;15918;51.270;6.522;2023-01-15T17:46:07;10.30;62.70
28763;DHT22;15918;51.270;6.522;2023-01-15T17:48:33;10.30;62.80
28763;DHT22;15918;51.270;6.522;2023-01-15T17:51:00;10.30;62.80
28763;DHT22;15918;51.270;6.522;2023-01-15T17:53:26;10.30;62.80
28763;DHT22;15918;51.270;6.522;2023-01-15T17:55:52;10.30;62.70
28763;DHT22;15918;51.270;6.522;2023-01-15T17:58:36;10.30;62.80